Wednesday, October 17, 2018, 12:08 PM EDT
Back to Local

KEWR, Newark International Airport

Location: Elizabeth, NJ, United States Lat: 40.683
Local Time: 12:08 PM EDT (16:08 GMT) Lon: -74.167
Time Zone: US/Eastern Elev: 16 ft

Show me the last for .
Show Decoded

2018-10-17 11:51 METAR KEWR 171551Z 25018KT 10SM FEW250 15/03 A2995 RMK AO2 SLP140 T01500033 =
2018-10-17 10:51 METAR KEWR 171451Z 25018G26KT 10SM FEW250 13/03 A2997 RMK AO2 PK WND 26027/1434
                 SLP148 T01280033 58008 =
2018-10-17 09:51 METAR KEWR 171351Z 24015KT 10SM FEW200 FEW250 12/04 A2998 RMK AO2 SLP152
                 T01170044 =
2018-10-17 08:51 METAR KEWR 171251Z 24012KT 10SM FEW100 FEW200 SCT250 09/04 A3000 RMK AO2 SLP160
                 T00940044 =
2018-10-17 07:51 METAR KEWR 171151Z 23010KT 10SM FEW180 SCT250 07/04 A2999 RMK AO2 SLP156
                 T00720039 10078 20056 58009 =
2018-10-17 06:51 METAR KEWR 171051Z 24010KT 10SM FEW200 BKN250 07/04 A3001 RMK AO2 SLP160
                 T00720044 =
2018-10-17 05:51 METAR KEWR 170951Z 22006KT 10SM SCT260 06/04 A3002 RMK AO2 SLP165 T00610044 =
2018-10-17 04:51 METAR KEWR 170851Z 23004KT 10SM SCT250 06/03 A3002 RMK AO2 SLP165 T00560033
                 56012 =
2018-10-17 03:51 METAR KEWR 170751Z 24006KT 10SM BKN250 07/04 A3002 RMK AO2 SLP166 T00720039 =
2018-10-17 02:51 METAR KEWR 170651Z 24005KT 10SM BKN250 08/04 A3004 RMK AO2 SLP172 T00780039 =
2018-10-17 01:51 METAR KEWR 170551Z 21005KT 10SM BKN250 07/03 A3005 RMK AO2 SLP177 T00670033
                 10106 20067 56007 =
2018-10-17 00:51 METAR KEWR 170451Z 22005KT 10SM BKN250 07/03 A3005 RMK SLP177 T00720028
                 401500072 =
2018-10-16 23:51 METAR KEWR 170351Z 25007KT 10SM FEW200 BKN250 09/03 A3006 RMK AO2 SLP179
                 T00890028 =
2018-10-16 22:51 METAR KEWR 170251Z 24009KT 10SM BKN250 09/03 A3008 RMK AO2 SLP184 T00940028
                 56002 =
2018-10-16 21:51 METAR KEWR 170151Z 25010KT 10SM BKN250 10/03 A3008 RMK AO2 SLP184 T01000028 =
2018-10-16 20:51 METAR KEWR 170051Z 24011KT 10SM BKN250 10/02 A3008 RMK AO2 SLP185 T01000022 =
2018-10-16 19:51 METAR KEWR 162351Z 23011KT 10SM FEW180 BKN250 11/02 A3008 RMK AO2 SLP186
                 T01060022 10144 20100 51008 =
2018-10-16 18:51 METAR KEWR 162251Z 22011KT 10SM FEW180 BKN250 11/02 A3008 RMK AO2 SLP184
                 T01060017 =
2018-10-16 17:51 METAR KEWR 162151Z 21010KT 10SM FEW180 BKN250 11/02 A3007 RMK AO2 SLP183
                 T01110017 =
2018-10-16 16:51 METAR KEWR 162051Z 25009KT 10SM FEW180 BKN250 12/01 A3006 RMK AO2 SLP178
                 T01220006 56016 $ =
2018-10-16 15:51 METAR KEWR 161951Z 26010KT 10SM FEW180 BKN250 13/01 A3006 RMK AO2 SLP180
                 T01330006 $ =
2018-10-16 14:51 METAR KEWR 161851Z 26009KT 10SM BKN250 13/00 A3008 RMK AO2 SLP186 T01330000 $ =
2018-10-16 13:51 METAR KEWR 161751Z 27010KT 10SM BKN250 13/00 A3011 RMK AO2 SLP194 T01280000
                 10133 20083 58021 $ =
2018-10-16 12:51 METAR KEWR 161651Z 29007KT 10SM BKN250 13/00 A3014 RMK AO2 SLP204 T01280000 $ =

Support USWX by starting your Amazon purchase here.